Time;durP1;ratioP1;P1;durP2;ratioP2;P2;SDS_P1;SDS_P2;PMS_P1;PMS_P2;Temp;Humidity;BMP_temperature;BMP_pressure;BME280_temperature;BME280_humidity;BME280_pressure;Samples;Min_cycle;Max_cycle;Signal;HPM_P1;HPM_P2
2022/05/18 00:00:43;;;;;;;16.83;13.45;;;;;;;;;;5079504;28;20057;-68
2022/05/18 00:03:09;;;;;;;17.05;12.88;;;;;;;;;;5085914;28;20020;-68
2022/05/18 00:05:36;;;;;;;17.98;13.48;;;;;;;;;;5082572;28;20032;-68
2022/05/18 00:08:02;;;;;;;16.85;12.10;;;;;;;;;;5067916;28;20063;-68
2022/05/18 00:10:27;;;;;;;15.88;13.45;;;;;;;;;;5079040;28;20132;-69
2022/05/18 00:12:52;;;;;;;16.38;13.30;;;;;;;;;;5083812;28;20149;-67
2022/05/18 00:15:19;;;;;;;18.95;14.52;;;;;;;;;;5080522;28;20023;-68
2022/05/18 00:17:45;;;;;;;16.95;13.10;;;;;;;;;;5082653;28;20030;-67
2022/05/18 00:20:11;;;;;;;18.05;16.02;;;;;;;;;;5085077;28;20024;-68
2022/05/18 00:22:43;;;;;;;19.80;16.50;;;;;;;;;;5085245;28;20023;-67
2022/05/18 00:25:08;;;;;;;18.38;16.23;;;;;;;;;;5080076;28;20024;-68
2022/05/18 00:27:34;;;;;;;16.70;14.90;;;;;;;;;;5081795;28;20028;-67
2022/05/18 00:29:59;;;;;;;19.45;15.52;;;;;;;;;;5080642;28;20383;-68
2022/05/18 00:32:24;;;;;;;20.23;17.02;;;;;;;;;;5083285;28;20382;-69
2022/05/18 00:34:50;;;;;;;18.15;16.25;;;;;;;;;;5064348;28;20467;-68
2022/05/18 00:37:15;;;;;;;19.73;17.70;;;;;;;;;;5105973;28;20054;-68
2022/05/18 00:39:41;;;;;;;24.00;20.17;;;;;;;;;;5101543;28;20012;-67
2022/05/18 00:42:16;;;;;;;22.25;18.90;;;;;;;;;;5085727;28;20450;-70
2022/05/18 00:44:41;;;;;;;22.95;19.35;;;;;;;;;;5101361;28;20053;-66
2022/05/18 00:47:07;;;;;;;23.77;19.65;;;;;;;;;;5105171;28;20124;-69
2022/05/18 00:49:32;;;;;;;22.77;20.35;;;;;;;;;;5076246;28;20024;-67
2022/05/18 00:51:58;;;;;;;24.80;20.58;;;;;;;;;;5097021;28;20035;-68
2022/05/18 00:54:27;;;;;;;26.48;22.83;;;;;;;;;;5100981;28;20028;-67
2022/05/18 00:56:55;;;;;;;30.05;23.60;;;;;;;;;;5105212;28;20103;-68
2022/05/18 00:59:26;;;;;;;25.85;22.88;;;;;;;;;;5106207;28;20482;-69
2022/05/18 01:01:52;;;;;;;29.35;22.50;;;;;;;;;;5085430;28;20030;-67
2022/05/18 01:04:18;;;;;;;28.38;25.20;;;;;;;;;;5104406;28;20116;-68
2022/05/18 01:06:45;;;;;;;30.20;25.00;;;;;;;;;;5075488;28;20028;-68
2022/05/18 01:09:24;;;;;;;33.22;26.58;;;;;;;;;;5086846;28;20146;-67
2022/05/18 01:11:49;;;;;;;30.98;27.70;;;;;;;;;;5089493;28;20110;-68
2022/05/18 01:14:17;;;;;;;27.88;24.75;;;;;;;;;;5089806;28;20111;-68
2022/05/18 01:16:43;;;;;;;31.10;27.25;;;;;;;;;;5088986;28;20039;-68
2022/05/18 01:19:22;;;;;;;30.05;26.88;;;;;;;;;;5089251;28;20021;-67
2022/05/18 01:21:54;;;;;;;29.85;26.15;;;;;;;;;;5083960;28;20013;-68
2022/05/18 01:24:24;;;;;;;31.15;26.92;;;;;;;;;;5089301;28;20019;-67
2022/05/18 01:26:50;;;;;;;31.88;26.70;;;;;;;;;;5086633;28;20035;-68
2022/05/18 01:29:18;;;;;;;33.92;27.73;;;;;;;;;;5088445;28;20102;-67
2022/05/18 01:31:49;;;;;;;30.35;26.58;;;;;;;;;;5087500;28;20088;-68
2022/05/18 01:34:17;;;;;;;31.98;26.25;;;;;;;;;;5088881;28;20017;-67
2022/05/18 01:36:42;;;;;;;31.55;28.05;;;;;;;;;;5088082;28;20035;-68
2022/05/18 01:39:10;;;;;;;33.42;30.13;;;;;;;;;;5088564;28;20024;-68
2022/05/18 01:41:39;;;;;;;30.40;27.05;;;;;;;;;;5069551;28;20110;-68
2022/05/18 01:44:05;;;;;;;30.88;27.60;;;;;;;;;;5099038;28;20015;-68
2022/05/18 01:46:31;;;;;;;30.13;26.90;;;;;;;;;;5107851;28;20011;-68
2022/05/18 01:48:56;;;;;;;34.47;30.77;;;;;;;;;;5094610;28;20020;-68
2022/05/18 01:51:35;;;;;;;30.17;26.98;;;;;;;;;;5080656;28;20024;-67
2022/05/18 01:54:01;;;;;;;31.23;27.83;;;;;;;;;;5086714;28;20024;-68
2022/05/18 01:56:26;;;;;;;32.40;28.13;;;;;;;;;;5101890;28;20026;-67
2022/05/18 01:58:51;;;;;;;31.40;28.00;;;;;;;;;;5106204;28;20681;-66
2022/05/18 02:01:17;;;;;;;33.55;27.35;;;;;;;;;;5099841;28;20035;-68
2022/05/18 02:03:42;;;;;;;32.10;28.85;;;;;;;;;;5087862;28;20039;-67
2022/05/18 02:06:07;;;;;;;32.10;28.73;;;;;;;;;;5078519;28;20107;-68
2022/05/18 02:08:32;;;;;;;35.28;28.10;;;;;;;;;;5087677;28;20556;-68
2022/05/18 02:10:58;;;;;;;29.10;25.88;;;;;;;;;;5083550;28;20078;-67
2022/05/18 02:13:23;;;;;;;30.90;27.58;;;;;;;;;;5074032;28;20024;-68
2022/05/18 02:15:49;;;;;;;30.40;27.20;;;;;;;;;;5090834;28;20024;-67
2022/05/18 02:18:14;;;;;;;28.50;25.15;;;;;;;;;;5072949;28;20035;-68
2022/05/18 02:20:40;;;;;;;28.20;25.30;;;;;;;;;;5101524;28;20188;-71
2022/05/18 02:23:05;;;;;;;31.23;27.17;;;;;;;;;;5106846;28;20052;-69
2022/05/18 02:25:32;;;;;;;29.73;26.58;;;;;;;;;;5090493;28;20043;-69
2022/05/18 02:27:57;;;;;;;29.60;26.45;;;;;;;;;;5106499;28;20023;-70
2022/05/18 02:30:23;;;;;;;28.08;24.25;;;;;;;;;;5091514;28;20027;-70
2022/05/18 02:32:48;;;;;;;30.27;27.13;;;;;;;;;;5086426;28;20032;-68
2022/05/18 02:35:14;;;;;;;30.67;27.42;;;;;;;;;;5061261;28;20043;-69
2022/05/18 02:37:39;;;;;;;29.55;26.50;;;;;;;;;;5091115;28;20020;-70
2022/05/18 02:40:06;;;;;;;29.05;25.95;;;;;;;;;;5106336;28;20019;-70
2022/05/18 02:42:31;;;;;;;31.88;27.13;;;;;;;;;;5095602;28;20026;-70
2022/05/18 02:44:57;;;;;;;28.27;25.25;;;;;;;;;;5084748;28;20334;-70
2022/05/18 02:47:23;;;;;;;26.58;23.75;;;;;;;;;;5091620;28;20369;-69
2022/05/18 02:49:51;;;;;;;29.15;26.02;;;;;;;;;;5089783;28;20020;-69
2022/05/18 02:52:17;;;;;;;29.92;26.83;;;;;;;;;;5087742;28;20398;-70
2022/05/18 02:57:26;;;;;;;28.48;25.52;;;;;;;;;;5111452;28;20030;-69
2022/05/18 02:59:52;;;;;;;27.83;24.90;;;;;;;;;;5111451;28;20031;-68
2022/05/18 03:02:17;;;;;;;29.70;26.40;;;;;;;;;;5109519;28;20023;-69
2022/05/18 03:04:43;;;;;;;29.23;24.58;;;;;;;;;;5102044;28;20559;-68
2022/05/18 03:07:08;;;;;;;26.90;24.05;;;;;;;;;;5107910;28;20049;-69
2022/05/18 03:09:34;;;;;;;33.60;28.23;;;;;;;;;;5110774;28;20047;-68
2022/05/18 03:11:59;;;;;;;31.17;27.23;;;;;;;;;;5111044;28;20023;-68
2022/05/18 03:14:24;;;;;;;30.00;26.10;;;;;;;;;;5111033;28;20481;-68
2022/05/18 03:16:50;;;;;;;27.52;24.67;;;;;;;;;;5109514;28;20442;-68
2022/05/18 03:19:16;;;;;;;27.60;24.60;;;;;;;;;;5110723;28;20020;-69
2022/05/18 03:24:25;;;;;;;26.23;23.00;;;;;;;;;;5090629;28;20030;-69
2022/05/18 03:26:50;;;;;;;25.70;22.92;;;;;;;;;;5088397;28;20375;-68
2022/05/18 03:29:17;;;;;;;27.25;22.17;;;;;;;;;;5088853;28;20036;-67
2022/05/18 03:31:43;;;;;;;27.45;21.83;;;;;;;;;;5090505;28;20115;-69
2022/05/18 03:34:08;;;;;;;22.48;20.23;;;;;;;;;;5111230;28;20110;-69
2022/05/18 03:36:33;;;;;;;23.83;19.33;;;;;;;;;;5109349;28;20335;-69
2022/05/18 03:38:59;;;;;;;22.75;19.08;;;;;;;;;;5104838;28;20027;-68
2022/05/18 03:41:24;;;;;;;21.83;19.27;;;;;;;;;;5107521;28;20466;-68
2022/05/18 03:43:49;;;;;;;21.88;18.95;;;;;;;;;;5106672;28;20083;-68
2022/05/18 03:46:15;;;;;;;22.80;20.10;;;;;;;;;;5104704;28;20024;-68
2022/05/18 03:48:41;;;;;;;24.02;20.35;;;;;;;;;;5110829;28;20421;-69
2022/05/18 03:51:08;;;;;;;22.02;19.50;;;;;;;;;;5109056;28;20048;-68
2022/05/18 03:53:33;;;;;;;23.38;20.42;;;;;;;;;;5110143;28;20016;-70
2022/05/18 03:55:58;;;;;;;23.65;19.55;;;;;;;;;;5109819;28;20497;-69
2022/05/18 03:58:23;;;;;;;22.58;20.17;;;;;;;;;;5109713;28;20130;-68
2022/05/18 04:00:50;;;;;;;23.40;19.42;;;;;;;;;;5108008;28;20011;-68
2022/05/18 04:03:16;;;;;;;22.77;19.73;;;;;;;;;;5105220;28;20024;-68
2022/05/18 04:05:41;;;;;;;25.10;22.38;;;;;;;;;;5088933;28;20017;-67
2022/05/18 04:08:08;;;;;;;25.23;20.45;;;;;;;;;;5091105;28;20022;-68
2022/05/18 04:10:34;;;;;;;22.10;19.77;;;;;;;;;;5109413;28;20039;-68
2022/05/18 04:13:00;;;;;;;21.52;18.63;;;;;;;;;;5093516;28;20020;-68
2022/05/18 04:15:27;;;;;;;24.10;20.75;;;;;;;;;;5088263;28;20020;-68
2022/05/18 04:17:53;;;;;;;23.77;21.02;;;;;;;;;;5086817;28;20016;-68
2022/05/18 04:20:20;;;;;;;21.75;19.45;;;;;;;;;;5077209;28;20402;-68
2022/05/18 04:22:46;;;;;;;26.00;19.90;;;;;;;;;;5088456;28;20016;-67
2022/05/18 04:25:14;;;;;;;23.40;20.90;;;;;;;;;;5089853;28;20092;-68
2022/05/18 04:27:39;;;;;;;21.45;19.23;;;;;;;;;;5088014;28;20020;-68
2022/05/18 04:30:05;;;;;;;23.35;20.73;;;;;;;;;;5089528;28;20034;-68
2022/05/18 04:32:30;;;;;;;25.40;21.38;;;;;;;;;;5089488;28;20017;-68
2022/05/18 04:34:56;;;;;;;23.42;20.00;;;;;;;;;;5089528;28;20104;-68
2022/05/18 04:37:21;;;;;;;24.40;20.73;;;;;;;;;;5088461;28;20130;-69
2022/05/18 04:39:46;;;;;;;25.08;21.63;;;;;;;;;;5091292;28;20056;-68
2022/05/18 04:42:11;;;;;;;22.65;18.58;;;;;;;;;;5113425;28;20020;-71
2022/05/18 04:44:37;;;;;;;24.63;21.35;;;;;;;;;;5113091;28;20030;-69
2022/05/18 04:47:03;;;;;;;26.05;20.55;;;;;;;;;;5112581;28;20606;-69
2022/05/18 04:49:28;;;;;;;23.38;20.88;;;;;;;;;;5112577;28;20096;-68
2022/05/18 04:51:53;;;;;;;25.75;21.90;;;;;;;;;;5094273;28;20023;-67
2022/05/18 04:54:18;;;;;;;24.35;20.42;;;;;;;;;;5090755;28;20121;-69
2022/05/18 04:56:44;;;;;;;22.10;19.77;;;;;;;;;;5089509;28;20024;-69
2022/05/18 04:59:12;;;;;;;23.80;20.90;;;;;;;;;;5069882;28;20031;-67
2022/05/18 05:01:37;;;;;;;26.33;21.98;;;;;;;;;;5092271;28;20024;-69
2022/05/18 05:04:03;;;;;;;22.33;19.83;;;;;;;;;;5097443;28;20026;-69
2022/05/18 05:06:28;;;;;;;23.52;20.58;;;;;;;;;;5112891;28;20156;-68
2022/05/18 05:08:53;;;;;;;21.92;19.08;;;;;;;;;;5110939;28;20054;-68
2022/05/18 05:11:19;;;;;;;24.42;20.08;;;;;;;;;;5103226;28;20039;-69
2022/05/18 05:13:44;;;;;;;22.00;19.33;;;;;;;;;;5113385;28;20032;-68
2022/05/18 05:16:10;;;;;;;25.77;19.85;;;;;;;;;;5113390;28;20478;-68
2022/05/18 05:18:36;;;;;;;21.58;18.02;;;;;;;;;;5113195;28;20085;-68
2022/05/18 05:21:01;;;;;;;21.30;18.38;;;;;;;;;;5113159;28;20020;-67
2022/05/18 05:23:27;;;;;;;22.42;19.75;;;;;;;;;;5112987;28;20026;-68
2022/05/18 05:25:53;;;;;;;19.33;17.30;;;;;;;;;;5113096;27;20055;-68
2022/05/18 05:28:18;;;;;;;21.20;18.65;;;;;;;;;;5113138;28;20051;-67
2022/05/18 05:30:44;;;;;;;21.35;16.80;;;;;;;;;;5113252;28;20044;-67
2022/05/18 05:33:09;;;;;;;19.42;16.92;;;;;;;;;;5111659;28;20035;-67
2022/05/18 05:35:34;;;;;;;18.27;15.20;;;;;;;;;;5082598;28;20028;-67
2022/05/18 05:38:01;;;;;;;17.70;14.75;;;;;;;;;;5089695;28;20020;-67
2022/05/18 05:40:26;;;;;;;17.42;14.18;;;;;;;;;;5089879;28;20027;-66
2022/05/18 05:42:51;;;;;;;16.90;13.07;;;;;;;;;;5108199;28;20024;-67
2022/05/18 05:45:17;;;;;;;16.05;12.77;;;;;;;;;;5112515;28;20473;-67
2022/05/18 05:47:42;;;;;;;14.77;12.32;;;;;;;;;;5112718;28;20455;-67
2022/05/18 05:50:08;;;;;;;19.77;12.05;;;;;;;;;;5112263;28;20449;-67
2022/05/18 05:52:33;;;;;;;15.98;12.38;;;;;;;;;;5111449;28;20031;-66
2022/05/18 05:54:59;;;;;;;16.90;12.00;;;;;;;;;;5111031;28;20038;-68
2022/05/18 05:57:25;;;;;;;14.60;11.93;;;;;;;;;;5094194;28;20031;-67
2022/05/18 05:59:50;;;;;;;17.15;12.45;;;;;;;;;;5100332;28;20459;-68
2022/05/18 06:02:16;;;;;;;18.48;12.38;;;;;;;;;;5092824;28;20039;-67
2022/05/18 06:04:42;;;;;;;18.67;11.40;;;;;;;;;;5091190;28;20024;-67
2022/05/18 06:07:08;;;;;;;15.68;10.95;;;;;;;;;;5091433;28;20032;-67
2022/05/18 06:09:33;;;;;;;14.90;11.32;;;;;;;;;;5092396;28;20464;-68
2022/05/18 06:11:58;;;;;;;19.70;11.55;;;;;;;;;;5092378;28;20021;-67
2022/05/18 06:14:24;;;;;;;16.02;10.85;;;;;;;;;;5090851;28;20488;-67
2022/05/18 06:16:49;;;;;;;17.80;11.45;;;;;;;;;;5089850;28;20032;-66
2022/05/18 06:19:20;;;;;;;17.10;11.25;;;;;;;;;;5085335;28;20024;-67
2022/05/18 06:21:47;;;;;;;17.65;11.35;;;;;;;;;;5082262;28;20539;-66
2022/05/18 06:24:14;;;;;;;17.17;11.15;;;;;;;;;;5086216;28;20028;-67
2022/05/18 06:26:39;;;;;;;15.88;11.10;;;;;;;;;;5084491;28;20173;-68
2022/05/18 06:29:06;;;;;;;17.90;11.65;;;;;;;;;;5086188;28;20463;-65
2022/05/18 06:31:31;;;;;;;16.65;11.23;;;;;;;;;;5065601;28;20020;-67
2022/05/18 06:33:57;;;;;;;14.13;11.30;;;;;;;;;;5085961;28;20031;-67
2022/05/18 06:36:23;;;;;;;17.80;11.30;;;;;;;;;;5092782;28;20219;-67
2022/05/18 06:38:48;;;;;;;15.57;10.80;;;;;;;;;;5106026;28;20500;-67
2022/05/18 06:41:22;;;;;;;16.02;10.60;;;;;;;;;;5104254;28;20023;-67
2022/05/18 06:43:51;;;;;;;15.32;10.48;;;;;;;;;;5104037;27;20804;-66
2022/05/18 06:46:17;;;;;;;14.43;10.13;;;;;;;;;;5103690;28;20079;-68
2022/05/18 06:48:43;;;;;;;14.05;10.38;;;;;;;;;;5106746;28;20020;-69
2022/05/18 06:51:11;;;;;;;16.88;10.88;;;;;;;;;;5094953;28;20031;-67
2022/05/18 06:53:38;;;;;;;15.80;10.20;;;;;;;;;;5106689;28;20030;-68
2022/05/18 06:56:03;;;;;;;20.65;10.13;;;;;;;;;;5106664;28;20035;-67
2022/05/18 06:58:28;;;;;;;17.27;9.77;;;;;;;;;;5110565;28;20019;-68
2022/05/18 07:00:54;;;;;;;16.58;10.40;;;;;;;;;;5111824;28;20015;-67
2022/05/18 07:03:19;;;;;;;14.40;10.15;;;;;;;;;;5111828;28;20031;-67
2022/05/18 07:05:44;;;;;;;13.30;9.48;;;;;;;;;;5111168;28;20027;-67
2022/05/18 07:08:10;;;;;;;13.27;9.02;;;;;;;;;;5109710;28;20485;-66
2022/05/18 07:10:35;;;;;;;17.95;10.23;;;;;;;;;;5109409;28;20546;-69
2022/05/18 07:13:01;;;;;;;15.43;9.90;;;;;;;;;;5111043;28;20015;-68
2022/05/18 07:15:26;;;;;;;15.02;10.27;;;;;;;;;;5110615;28;20034;-68
2022/05/18 07:17:51;;;;;;;17.40;11.95;;;;;;;;;;5110671;28;20485;-67
2022/05/18 07:20:16;;;;;;;20.52;11.82;;;;;;;;;;5102541;28;20079;-68
2022/05/18 07:22:42;;;;;;;16.52;11.52;;;;;;;;;;5089292;28;20534;-67
2022/05/18 07:25:07;;;;;;;16.90;11.25;;;;;;;;;;5087886;28;20019;-68
2022/05/18 07:27:32;;;;;;;17.00;10.55;;;;;;;;;;5088036;28;20478;-67
2022/05/18 07:29:58;;;;;;;17.83;10.70;;;;;;;;;;5087026;28;20501;-66
2022/05/18 07:32:23;;;;;;;18.60;12.32;;;;;;;;;;5084194;28;20028;-67
2022/05/18 07:34:48;;;;;;;15.55;11.77;;;;;;;;;;5086844;28;20069;-68
2022/05/18 07:37:19;;;;;;;20.75;13.45;;;;;;;;;;5089369;28;20093;-67
2022/05/18 07:39:44;;;;;;;17.83;13.18;;;;;;;;;;5093272;28;20015;-67
2022/05/18 07:42:10;;;;;;;19.80;13.07;;;;;;;;;;5108278;28;20547;-67
2022/05/18 07:44:36;;;;;;;18.80;13.68;;;;;;;;;;5108086;28;20037;-67
2022/05/18 07:47:03;;;;;;;24.77;13.32;;;;;;;;;;5096170;28;20537;-67
2022/05/18 07:49:28;;;;;;;19.05;12.38;;;;;;;;;;5088090;28;20037;-67
2022/05/18 07:51:53;;;;;;;22.67;14.52;;;;;;;;;;5089400;28;20016;-66
2022/05/18 07:54:19;;;;;;;19.80;13.57;;;;;;;;;;5089554;28;20030;-68
2022/05/18 07:56:44;;;;;;;22.20;12.93;;;;;;;;;;5108259;28;20396;-67
2022/05/18 07:59:11;;;;;;;19.65;13.70;;;;;;;;;;5109788;28;20068;-66
2022/05/18 08:01:39;;;;;;;22.50;14.25;;;;;;;;;;5108241;28;20530;-67
2022/05/18 08:04:04;;;;;;;18.85;14.13;;;;;;;;;;5107039;28;20031;-68
2022/05/18 08:06:30;;;;;;;23.23;15.68;;;;;;;;;;5106911;28;20022;-68
2022/05/18 08:08:55;;;;;;;21.40;15.63;;;;;;;;;;5089908;28;20083;-67
2022/05/18 08:17:02;;;;;;;23.38;17.35;;;;;;;;;;5089393;28;20181;-67
2022/05/18 08:19:29;;;;;;;25.80;17.20;;;;;;;;;;5095374;28;20498;-68
2022/05/18 08:21:54;;;;;;;25.88;16.92;;;;;;;;;;5107858;28;20031;-68
2022/05/18 08:24:20;;;;;;;24.17;16.73;;;;;;;;;;5087999;28;20031;-68
2022/05/18 08:26:45;;;;;;;27.35;17.08;;;;;;;;;;5084725;28;20475;-68
2022/05/18 08:29:14;;;;;;;22.80;18.58;;;;;;;;;;5087361;28;20021;-68
2022/05/18 08:31:40;;;;;;;27.48;18.45;;;;;;;;;;5066332;28;20103;-68
2022/05/18 08:34:05;;;;;;;24.05;17.42;;;;;;;;;;5089520;28;20158;-68
2022/05/18 08:36:31;;;;;;;25.02;16.85;;;;;;;;;;5088146;28;20497;-68
2022/05/18 08:38:57;;;;;;;21.38;13.93;;;;;;;;;;5097041;28;20015;-68
2022/05/18 08:41:26;;;;;;;22.30;12.60;;;;;;;;;;5106923;28;20027;-67
2022/05/18 08:43:56;;;;;;;21.25;13.23;;;;;;;;;;5108593;28;20015;-66
2022/05/18 08:46:28;;;;;;;19.38;13.45;;;;;;;;;;5108384;28;20026;-67
2022/05/18 08:49:02;;;;;;;22.35;12.50;;;;;;;;;;5109759;28;20031;-68
2022/05/18 08:51:27;;;;;;;17.27;12.32;;;;;;;;;;5106611;28;20027;-68
2022/05/18 08:54:10;;;;;;;16.13;10.57;;;;;;;;;;5104308;28;20026;-69
2022/05/18 08:56:38;;;;;;;14.65;9.60;;;;;;;;;;5101474;28;20698;-68
2022/05/18 08:59:05;;;;;;;15.63;10.55;;;;;;;;;;5104935;28;20478;-68
2022/05/18 09:01:40;;;;;;;13.25;7.90;;;;;;;;;;5099543;28;20020;-67
2022/05/18 09:04:08;;;;;;;11.70;8.13;;;;;;;;;;5103389;28;20168;-67
2022/05/18 09:06:36;;;;;;;13.20;8.48;;;;;;;;;;5095908;28;20359;-68
2022/05/18 09:11:46;;;;;;;13.60;8.85;;;;;;;;;;5094177;28;20063;-67
2022/05/18 09:14:15;;;;;;;14.90;10.43;;;;;;;;;;5083388;28;20052;-67
2022/05/18 09:16:48;;;;;;;15.57;12.00;;;;;;;;;;5065376;28;20521;-67
2022/05/18 09:19:20;;;;;;;19.50;13.73;;;;;;;;;;5080057;28;20024;-67
2022/05/18 09:22:04;;;;;;;19.52;15.32;;;;;;;;;;5077174;28;20211;-67
2022/05/18 09:24:49;;;;;;;24.90;15.20;;;;;;;;;;5082680;28;20035;-67
2022/05/18 09:27:20;;;;;;;21.38;13.57;;;;;;;;;;5087979;28;20065;-67
2022/05/18 09:30:15;;;;;;;14.75;11.52;;;;;;;;;;5084289;28;20114;-68
2022/05/18 09:32:43;;;;;;;14.82;11.75;;;;;;;;;;5078246;28;20086;-68
2022/05/18 09:35:22;;;;;;;17.83;12.10;;;;;;;;;;5081178;28;20062;-68
2022/05/18 09:37:48;;;;;;;15.43;10.85;;;;;;;;;;5086093;28;20034;-67
2022/05/18 09:40:23;;;;;;;14.77;11.35;;;;;;;;;;5086939;28;20103;-68
2022/05/18 09:42:51;;;;;;;16.83;11.38;;;;;;;;;;5085345;28;20020;-67
2022/05/18 09:45:22;;;;;;;15.48;10.10;;;;;;;;;;5086567;28;20067;-68
2022/05/18 09:48:07;;;;;;;16.10;9.13;;;;;;;;;;5107969;28;20035;-68
2022/05/18 09:50:34;;;;;;;11.48;7.43;;;;;;;;;;5098162;28;20034;-68
2022/05/18 09:53:00;;;;;;;9.68;7.35;;;;;;;;;;5109429;28;20032;-67
2022/05/18 09:55:27;;;;;;;13.20;7.07;;;;;;;;;;5106031;28;20031;-69
2022/05/18 09:57:52;;;;;;;11.75;7.13;;;;;;;;;;5107706;28;20485;-68
2022/05/18 10:00:26;;;;;;;7.90;6.45;;;;;;;;;;5107385;27;20016;-67
2022/05/18 10:08:37;;;;;;;11.60;7.22;;;;;;;;;;5072407;27;20035;-69
2022/05/18 10:11:22;;;;;;;12.65;8.13;;;;;;;;;;5106695;28;20027;-68
2022/05/18 10:13:58;;;;;;;11.00;7.38;;;;;;;;;;5105270;28;20112;-66
2022/05/18 10:16:31;;;;;;;12.23;7.53;;;;;;;;;;5098528;28;20100;-67
2022/05/18 10:18:58;;;;;;;16.98;9.40;;;;;;;;;;5087641;28;20510;-67
2022/05/18 10:21:36;;;;;;;17.33;11.27;;;;;;;;;;5093373;28;20134;-67
2022/05/18 10:24:04;;;;;;;13.05;9.45;;;;;;;;;;5108253;28;20027;-68
2022/05/18 10:26:34;;;;;;;14.50;10.13;;;;;;;;;;5105001;28;20015;-67
2022/05/18 10:28:59;;;;;;;13.65;10.25;;;;;;;;;;5090021;28;20023;-68
2022/05/18 10:31:33;;;;;;;13.77;8.98;;;;;;;;;;5082396;28;20042;-66
2022/05/18 10:34:13;;;;;;;13.05;9.15;;;;;;;;;;5084641;28;20020;-67
2022/05/18 10:36:48;;;;;;;15.35;9.45;;;;;;;;;;5076364;28;20077;-68
2022/05/18 10:39:27;;;;;;;12.05;8.77;;;;;;;;;;5086588;28;20107;-67
2022/05/18 10:41:52;;;;;;;12.73;8.15;;;;;;;;;;5083835;28;20016;-67
2022/05/18 10:44:22;;;;;;;12.65;9.05;;;;;;;;;;5086705;28;20027;-68
2022/05/18 10:46:48;;;;;;;15.32;9.50;;;;;;;;;;5083437;28;20414;-68
2022/05/18 10:49:20;;;;;;;15.18;9.32;;;;;;;;;;5086036;28;20077;-68
2022/05/18 10:51:45;;;;;;;15.38;8.57;;;;;;;;;;5079789;28;20020;-67
2022/05/18 10:54:27;;;;;;;13.52;8.90;;;;;;;;;;5087345;28;20028;-67
2022/05/18 10:57:07;;;;;;;12.07;8.63;;;;;;;;;;5068522;28;20031;-68
2022/05/18 10:59:33;;;;;;;11.98;8.38;;;;;;;;;;5086402;28;20069;-68
2022/05/18 11:02:18;;;;;;;9.80;7.40;;;;;;;;;;5085227;28;20016;-67
2022/05/18 11:04:50;;;;;;;12.40;6.75;;;;;;;;;;5088200;28;20146;-67
2022/05/18 11:07:16;;;;;;;10.68;6.15;;;;;;;;;;5108026;28;20486;-67
2022/05/18 11:09:41;;;;;;;13.27;6.57;;;;;;;;;;5104499;28;20049;-67
2022/05/18 11:12:16;;;;;;;9.38;5.35;;;;;;;;;;5105795;28;20027;-68
2022/05/18 11:15:00;;;;;;;8.57;4.13;;;;;;;;;;5083539;28;20022;-67
2022/05/18 11:17:44;;;;;;;8.15;5.10;;;;;;;;;;5085937;28;20305;-68
2022/05/18 11:20:31;;;;;;;7.28;4.68;;;;;;;;;;5095670;28;20157;-68
2022/05/18 11:23:02;;;;;;;9.48;5.15;;;;;;;;;;5106649;28;20020;-67
2022/05/18 11:25:39;;;;;;;6.82;3.92;;;;;;;;;;5098343;28;20024;-68
2022/05/18 11:28:14;;;;;;;7.93;4.65;;;;;;;;;;5108232;28;20023;-68
2022/05/18 11:30:50;;;;;;;8.25;5.03;;;;;;;;;;5086936;28;20020;-68
2022/05/18 11:33:50;;;;;;;8.48;4.28;;;;;;;;;;5108335;28;20027;-67
2022/05/18 11:36:18;;;;;;;5.43;4.30;;;;;;;;;;5017239;28;20067;-68
2022/05/18 11:38:47;;;;;;;11.25;4.78;;;;;;;;;;5101662;27;20142;-67
2022/05/18 11:41:41;;;;;;;10.02;4.93;;;;;;;;;;5106472;28;20493;-68
2022/05/18 11:44:07;;;;;;;9.88;4.28;;;;;;;;;;5088929;28;20036;-68
2022/05/18 11:47:05;;;;;;;9.15;4.25;;;;;;;;;;5103358;28;20020;-68
2022/05/18 11:49:42;;;;;;;5.53;3.90;;;;;;;;;;5059259;28;20119;-68
2022/05/18 11:52:30;;;;;;;8.98;4.60;;;;;;;;;;5105257;28;20169;-68
2022/05/18 11:54:56;;;;;;;6.70;3.95;;;;;;;;;;5102662;28;20379;-68
2022/05/18 11:57:21;;;;;;;6.57;4.00;;;;;;;;;;5105883;28;20074;-68
2022/05/18 12:00:08;;;;;;;7.30;3.83;;;;;;;;;;5104667;28;20702;-69
2022/05/18 12:02:36;;;;;;;8.05;3.47;;;;;;;;;;5090814;28;20463;-68
2022/05/18 12:05:08;;;;;;;6.57;4.20;;;;;;;;;;5077520;28;20317;-68
2022/05/18 12:07:45;;;;;;;6.03;4.28;;;;;;;;;;5103741;28;20019;-69
2022/05/18 12:10:32;;;;;;;6.40;4.32;;;;;;;;;;5100848;28;20079;-68
2022/05/18 12:13:13;;;;;;;8.65;4.20;;;;;;;;;;5083674;28;20028;-68
2022/05/18 12:15:47;;;;;;;9.50;5.18;;;;;;;;;;5084188;28;20046;-69
2022/05/18 12:18:17;;;;;;;8.88;4.30;;;;;;;;;;5106345;28;20492;-69
2022/05/18 12:20:48;;;;;;;6.38;4.03;;;;;;;;;;5098024;28;20016;-68
2022/05/18 12:23:16;;;;;;;8.18;4.50;;;;;;;;;;5105968;28;20080;-68
2022/05/18 12:25:41;;;;;;;8.55;4.18;;;;;;;;;;5103037;28;20039;-68
2022/05/18 12:28:08;;;;;;;9.63;4.68;;;;;;;;;;5105020;28;20015;-67
2022/05/18 12:30:35;;;;;;;11.60;4.40;;;;;;;;;;5101232;28;20020;-67
2022/05/18 12:33:02;;;;;;;16.33;4.18;;;;;;;;;;5101633;28;20024;-68
2022/05/18 12:35:31;;;;;;;11.80;5.20;;;;;;;;;;5095491;28;20024;-66
2022/05/18 12:38:03;;;;;;;7.47;4.60;;;;;;;;;;5102438;28;20160;-68
2022/05/18 12:40:32;;;;;;;38.85;5.60;;;;;;;;;;5102423;28;20110;-68
2022/05/18 12:43:00;;;;;;;18.08;5.00;;;;;;;;;;5102706;28;20069;-66
2022/05/18 12:45:25;;;;;;;8.63;4.72;;;;;;;;;;5103671;28;20023;-67
2022/05/18 12:47:52;;;;;;;36.67;6.10;;;;;;;;;;5102153;28;20079;-68
2022/05/18 12:50:17;;;;;;;14.23;5.00;;;;;;;;;;5094757;28;20761;-67
2022/05/18 12:52:54;;;;;;;17.70;5.07;;;;;;;;;;5104654;28;20016;-68
2022/05/18 12:55:32;;;;;;;29.52;6.20;;;;;;;;;;5102298;28;20019;-67
2022/05/18 12:58:05;;;;;;;11.30;4.90;;;;;;;;;;5081007;28;20074;-69
2022/05/18 13:00:30;;;;;;;57.53;6.70;;;;;;;;;;5084019;28;20092;-66
2022/05/18 13:03:15;;;;;;;11.50;5.68;;;;;;;;;;5086865;28;20027;-68
2022/05/18 13:05:46;;;;;;;19.48;5.90;;;;;;;;;;5076982;28;20046;-67
2022/05/18 13:08:17;;;;;;;9.35;6.07;;;;;;;;;;5086981;28;20062;-67
2022/05/18 13:11:01;;;;;;;7.82;5.65;;;;;;;;;;5082589;28;20127;-67
2022/05/18 13:13:26;;;;;;;9.95;6.05;;;;;;;;;;5086842;28;20039;-67
2022/05/18 13:15:55;;;;;;;9.30;5.97;;;;;;;;;;5083501;28;20352;-67
2022/05/18 13:18:27;;;;;;;8.93;5.45;;;;;;;;;;5109097;28;20095;-67
2022/05/18 13:21:07;;;;;;;8.33;5.10;;;;;;;;;;5097894;28;20056;-66
2022/05/18 13:23:32;;;;;;;9.65;5.38;;;;;;;;;;5106768;28;20248;-66
2022/05/18 13:26:05;;;;;;;7.90;5.27;;;;;;;;;;5102054;28;20133;-67
2022/05/18 13:28:32;;;;;;;7.90;4.43;;;;;;;;;;5107938;28;20714;-66
2022/05/18 13:30:59;;;;;;;8.48;4.88;;;;;;;;;;5094894;28;20205;-66
2022/05/18 13:33:26;;;;;;;9.77;5.38;;;;;;;;;;5088968;28;20134;-67
2022/05/18 13:35:51;;;;;;;8.77;5.18;;;;;;;;;;5077094;28;20027;-68
2022/05/18 13:38:25;;;;;;;7.47;4.85;;;;;;;;;;5088667;28;20012;-67
2022/05/18 13:40:55;;;;;;;5.97;4.30;;;;;;;;;;5082781;28;20048;-67
2022/05/18 13:43:23;;;;;;;8.85;4.72;;;;;;;;;;5088480;28;20076;-66
2022/05/18 13:45:55;;;;;;;8.85;4.75;;;;;;;;;;5083811;28;20123;-66
2022/05/18 13:48:20;;;;;;;8.90;4.13;;;;;;;;;;5086213;28;20062;-67
2022/05/18 13:50:50;;;;;;;6.88;4.25;;;;;;;;;;5075945;28;20127;-67
2022/05/18 13:53:35;;;;;;;8.55;4.05;;;;;;;;;;5073897;28;20020;-67
2022/05/18 13:56:06;;;;;;;8.40;4.30;;;;;;;;;;5082145;28;20316;-67
2022/05/18 13:58:33;;;;;;;8.07;4.30;;;;;;;;;;5088041;28;20019;-67
2022/05/18 14:01:00;;;;;;;6.15;3.88;;;;;;;;;;5082938;28;20016;-67
2022/05/18 14:03:30;;;;;;;9.75;3.85;;;;;;;;;;5085850;28;20016;-67
2022/05/18 14:06:14;;;;;;;7.07;3.42;;;;;;;;;;5078410;28;20023;-66
2022/05/18 14:08:44;;;;;;;8.38;3.78;;;;;;;;;;5084188;28;20120;-68
2022/05/18 14:11:12;;;;;;;8.93;3.85;;;;;;;;;;5083988;28;20036;-67
2022/05/18 14:13:37;;;;;;;5.88;3.28;;;;;;;;;;5084282;28;20074;-67
2022/05/18 14:16:04;;;;;;;6.90;3.08;;;;;;;;;;5079149;28;20502;-66
2022/05/18 14:18:32;;;;;;;6.53;3.20;;;;;;;;;;5085019;28;20028;-66
2022/05/18 14:21:06;;;;;;;5.72;3.17;;;;;;;;;;5077565;28;20517;-66
2022/05/18 14:23:52;;;;;;;4.13;2.92;;;;;;;;;;5099665;28;20135;-68
2022/05/18 14:26:20;;;;;;;7.57;3.35;;;;;;;;;;5052554;28;20421;-67
2022/05/18 14:28:46;;;;;;;7.93;3.03;;;;;;;;;;5104575;28;20042;-67
2022/05/18 14:31:14;;;;;;;4.95;2.65;;;;;;;;;;5100804;28;20085;-67
2022/05/18 14:33:45;;;;;;;7.30;2.83;;;;;;;;;;5089594;28;20024;-67
2022/05/18 14:36:17;;;;;;;8.10;2.83;;;;;;;;;;5079551;28;20027;-67
2022/05/18 14:38:44;;;;;;;6.07;2.47;;;;;;;;;;5085247;28;20028;-68
2022/05/18 14:41:11;;;;;;;4.53;2.60;;;;;;;;;;5080982;28;20024;-67
2022/05/18 14:43:36;;;;;;;5.25;2.58;;;;;;;;;;5082641;28;20012;-68
2022/05/18 14:46:11;;;;;;;4.55;2.70;;;;;;;;;;5082825;28;20187;-67
2022/05/18 14:48:49;;;;;;;6.57;2.78;;;;;;;;;;5086502;28;20073;-67
2022/05/18 14:51:18;;;;;;;5.85;2.80;;;;;;;;;;5076994;28;20046;-67